Time;durP1;ratioP1;P1;durP2;ratioP2;P2;SDS_P1;SDS_P2;PMS_P1;PMS_P2;Temp;Humidity;BMP_temperature;BMP_pressure;BME280_temperature;BME280_humidity;BME280_pressure;Samples;Min_cycle;Max_cycle;Signal;HPM_P1;HPM_P2
2023/01/22 00:01:16;;;;;;;5.07;1.60;;;-0.30;99.90;;;-0.49;100.00;101333.41;4948899;28;20249;-73
2023/01/22 00:03:44;;;;;;;2.90;1.15;;;-0.20;99.90;;;-0.46;100.00;101328.41;4948630;28;20241;-73
2023/01/22 00:06:13;;;;;;;0.85;0.40;;;0.10;99.90;;;-0.45;100.00;101330.22;4947704;28;20257;-72
2023/01/22 00:08:41;;;;;;;1.65;0.70;;;0.40;99.90;;;-0.45;100.00;101330.22;4950625;28;20782;-73
2023/01/22 00:11:10;;;;;;;2.38;0.85;;;0.90;99.90;;;-0.43;100.00;101328.63;4946473;28;20238;-73
2023/01/22 00:13:37;;;;;;;4.10;1.63;;;-0.20;99.90;;;-0.44;100.00;101324.22;4945962;28;20233;-72
2023/01/22 00:16:04;;;;;;;7.05;2.35;;;0.80;99.90;;;-0.43;100.00;101318.22;4945111;28;20314;-73
2023/01/22 00:18:32;;;;;;;2.60;1.02;;;-0.20;99.90;;;-0.42;100.00;101318.34;4947846;28;20341;-72
2023/01/22 00:20:59;;;;;;;4.95;1.70;;;0.80;99.90;;;-0.43;100.00;101316.53;4943960;28;20277;-72
2023/01/22 00:23:26;;;;;;;5.75;2.00;;;-0.20;99.90;;;-0.42;100.00;101313.13;4948646;28;20312;-73
2023/01/22 00:26:02;;;;;;;1.60;0.77;;;-0.20;99.90;;;-0.41;100.00;101317.53;4948241;28;20292;-74
2023/01/22 00:28:30;;;;;;;4.90;1.73;;;-0.20;99.90;;;-0.39;100.00;101315.03;4944188;28;20230;-73
2023/01/22 00:31:02;;;;;;;4.00;1.38;;;-0.20;99.90;;;-0.38;100.00;101322.94;4948103;28;20324;-72
2023/01/22 00:33:30;;;;;;;7.00;2.35;;;-0.20;99.90;;;-0.37;100.00;101316.94;4940981;28;20233;-73
2023/01/22 00:36:09;;;;;;;7.25;2.47;;;-0.10;99.90;;;-0.38;100.00;101322.94;4936611;28;20328;-73
2023/01/22 00:38:36;;;;;;;2.47;1.05;;;-0.10;99.90;;;-0.37;100.00;101308.25;4946633;28;20292;-72
2023/01/22 00:41:06;;;;;;;3.50;1.33;;;0.00;99.90;;;-0.39;100.00;101317.63;4947886;28;20623;-72
2023/01/22 00:43:37;;;;;;;3.63;1.27;;;-0.20;99.90;;;-0.41;100.00;101314.03;4949625;28;20250;-73
2023/01/22 00:46:09;;;;;;;5.25;1.85;;;0.30;99.90;;;-0.43;100.00;101310.44;4946052;28;20260;-72
2023/01/22 00:48:37;;;;;;;1.80;0.80;;;-0.20;99.90;;;-0.43;100.00;101313.03;4950920;28;20257;-73
2023/01/22 00:51:07;;;;;;;5.18;1.85;;;-0.20;99.90;;;-0.42;100.00;101310.53;4947780;28;20241;-73
2023/01/22 00:53:36;;;;;;;3.10;1.17;;;-0.20;99.90;;;-0.45;100.00;101299.03;4962672;28;20660;-72
2023/01/22 00:56:04;;;;;;;2.58;1.10;;;0.90;99.90;;;-0.43;100.00;101303.53;4953660;28;20307;-72
2023/01/22 00:58:31;;;;;;;1.23;0.60;;;-0.20;99.90;;;-0.43;100.00;101305.22;4955979;28;20230;-73
2023/01/22 01:01:00;;;;;;;3.80;1.38;;;-0.10;99.90;;;-0.43;100.00;101308.72;4950976;28;20351;-73
2023/01/22 01:03:31;;;;;;;0.40;0.40;;;-0.20;99.90;;;-0.43;100.00;101294.84;4954679;28;20257;-73
2023/01/22 01:06:03;;;;;;;5.25;1.80;;;-0.20;99.90;;;-0.42;100.00;101302.75;4951554;28;20241;-73
2023/01/22 01:08:34;;;;;;;5.30;1.73;;;0.30;99.90;;;-0.38;100.00;101304.75;4950732;28;20300;-72
2023/01/22 01:11:06;;;;;;;5.28;1.73;;;-0.20;99.90;;;-0.39;100.00;101295.16;4948814;28;20316;-73
2023/01/22 01:13:40;;;;;;;3.08;1.08;;;0.00;99.90;;;-0.41;100.00;101294.16;4949092;28;20312;-73
2023/01/22 01:16:16;;;;;;;3.47;1.20;;;-0.10;99.90;;;-0.41;100.00;101303.63;4943748;28;20287;-73
2023/01/22 01:18:43;;;;;;;5.65;1.92;;;-0.20;99.90;;;-0.42;100.00;101296.63;4952258;28;20264;-73
2023/01/22 01:21:11;;;;;;;4.07;1.35;;;0.00;99.90;;;-0.41;100.00;101304.53;4948507;28;20241;-73
2023/01/22 01:23:38;;;;;;;4.57;1.52;;;-0.20;99.90;;;-0.38;100.00;101298.66;4945147;28;20317;-72
2023/01/22 01:26:13;;;;;;;4.70;1.55;;;0.90;99.90;;;-0.37;100.00;101301.34;4948563;28;20277;-73
2023/01/22 01:28:41;;;;;;;1.92;0.75;;;-0.10;99.90;;;-0.37;100.00;101303.03;4954335;28;20300;-73
2023/01/22 01:31:12;;;;;;;5.43;1.80;;;-0.10;99.90;;;-0.37;100.00;101301.34;4951762;28;20261;-73
2023/01/22 01:33:40;;;;;;;4.57;1.58;;;-0.10;99.90;;;-0.36;100.00;101297.03;4953077;28;20607;-73
2023/01/22 01:36:13;;;;;;;5.05;1.73;;;-0.10;99.90;;;-0.36;100.00;101303.16;4961279;28;20233;-73
2023/01/22 01:38:40;;;;;;;72.90;5.82;;;-0.10;99.90;;;-0.34;100.00;101301.53;4946850;28;20300;-73
2023/01/22 01:41:10;;;;;;;3.33;1.15;;;-0.10;99.90;;;-0.36;100.00;101300.53;4947867;28;20318;-73
2023/01/22 01:43:37;;;;;;;3.50;1.25;;;-0.10;99.90;;;-0.35;100.00;101302.34;4951284;28;20258;-72
2023/01/22 01:46:16;;;;;;;4.30;1.38;;;-0.10;99.90;;;-0.31;100.00;101311.25;4949396;28;20312;-72
2023/01/22 01:48:47;;;;;;;4.38;1.45;;;0.00;99.90;;;-0.30;100.00;101304.34;4961257;28;20237;-73
2023/01/22 01:51:22;;;;;;;3.55;2.63;;;-0.10;99.90;;;-0.29;100.00;101311.34;4948609;28;20257;-73
2023/01/22 01:53:50;;;;;;;4.57;1.50;;;0.00;99.90;;;-0.28;100.00;101310.53;4949132;28;20240;-73
2023/01/22 01:56:22;;;;;;;2.08;0.82;;;-0.10;99.90;;;-0.27;100.00;101309.75;4953143;28;20238;-73
2023/01/22 01:58:55;;;;;;;1.63;0.70;;;-0.10;99.90;;;-0.25;100.00;101309.06;4937641;28;20300;-73
2023/01/22 02:01:22;;;;;;;4.03;1.33;;;0.00;99.90;;;-0.23;100.00;101311.75;4952511;28;20226;-73
2023/01/22 02:03:50;;;;;;;2.33;0.88;;;1.20;99.90;;;-0.24;100.00;101309.94;4921854;28;20330;-73
2023/01/22 02:06:19;;;;;;;3.75;1.25;;;1.00;99.90;;;-0.26;100.00;101304.66;4959121;28;20753;-73
2023/01/22 02:08:48;;;;;;;4.65;1.75;;;0.00;99.90;;;-0.24;100.00;101303.06;4947889;28;20250;-72
2023/01/22 02:11:18;;;;;;;4.85;1.52;;;0.40;99.90;;;-0.25;100.00;101301.25;4967119;28;20309;-72
2023/01/22 02:13:51;;;;;;;9.25;1.90;;;0.00;99.90;;;-0.24;100.00;101304.75;4952270;28;20269;-72
2023/01/22 02:16:18;;;;;;;8.20;1.80;;;0.00;99.90;;;-0.23;100.00;101302.25;4943410;28;20225;-73
2023/01/22 02:18:46;;;;;;;8.15;1.95;;;0.50;99.90;;;-0.22;100.00;101303.16;4945974;28;20237;-73
2023/01/22 02:21:35;;;;;;;8.73;1.80;;;0.00;99.90;;;-0.20;100.00;101305.06;4950492;28;20262;-73
2023/01/22 02:24:08;;;;;;;16.40;3.30;;;0.00;99.90;;;-0.21;100.00;101308.44;4949164;28;20253;-72
2023/01/22 02:26:37;;;;;;;5.18;1.23;;;0.00;99.90;;;-0.19;100.00;101305.94;4953760;28;20292;-72
2023/01/22 02:29:09;;;;;;;10.07;2.13;;;0.00;99.90;;;-0.20;100.00;101309.34;4954832;28;20284;-72
2023/01/22 02:31:37;;;;;;;5.50;1.25;;;0.60;99.90;;;-0.19;100.00;101305.94;4951514;28;20253;-72
2023/01/22 02:34:07;;;;;;;26.15;5.07;;;0.50;99.90;;;-0.19;100.00;101309.44;4943845;28;20723;-72
2023/01/22 02:36:36;;;;;;;4.68;1.13;;;0.00;99.90;;;-0.20;100.00;101305.06;4946142;28;20229;-72
2023/01/22 02:39:05;;;;;;;14.18;3.15;;;0.00;99.90;;;-0.18;100.00;101310.34;4950615;28;20681;-73
2023/01/22 02:41:32;;;;;;;4.88;1.17;;;1.10;99.90;;;-0.19;100.00;101303.34;4950920;28;20233;-72
2023/01/22 02:43:59;;;;;;;7.15;1.73;;;0.20;99.90;;;-0.18;100.00;101307.75;4950177;28;20245;-72
2023/01/22 02:46:26;;;;;;;3.78;1.00;;;0.10;99.90;;;-0.18;100.00;101303.47;4944807;28;20264;-72
2023/01/22 02:48:53;;;;;;;10.77;2.35;;;0.20;99.90;;;-0.17;100.00;101304.34;4947311;28;20230;-73
2023/01/22 02:51:21;;;;;;;8.27;1.85;;;0.00;99.90;;;-0.17;100.00;101302.66;4943921;28;20682;-73
2023/01/22 02:53:48;;;;;;;13.15;2.75;;;0.10;99.90;;;-0.16;100.00;101307.06;4948781;28;20252;-74
2023/01/22 02:56:15;;;;;;;7.97;1.83;;;0.40;99.90;;;-0.15;100.00;101301.06;4952481;28;20253;-72
2023/01/22 02:58:42;;;;;;;4.63;1.15;;;0.70;99.90;;;-0.13;100.00;101299.47;4952212;28;20325;-72
2023/01/22 03:01:20;;;;;;;25.35;4.80;;;0.10;99.90;;;-0.11;100.00;101294.34;4940619;28;20288;-73
2023/01/22 03:03:52;;;;;;;6.30;1.55;;;0.10;99.90;;;-0.12;100.00;101303.84;4947270;28;20241;-73
2023/01/22 03:06:24;;;;;;;8.77;2.10;;;0.10;99.90;;;-0.10;100.00;101302.25;4945935;28;20295;-72
2023/01/22 03:08:55;;;;;;;11.38;2.90;;;1.10;99.90;;;-0.10;100.00;101312.66;4939838;28;20240;-74
2023/01/22 03:11:24;;;;;;;12.88;2.85;;;0.20;99.90;;;-0.09;100.00;101303.16;4938819;28;20230;-73
2023/01/22 03:22:11;;;;;;;5.47;1.23;;;0.20;99.90;;;-0.08;100.00;101302.34;4949988;28;20233;-73
2023/01/22 03:24:38;;;;;;;8.35;1.95;;;0.20;99.90;;;-0.07;100.00;101306.75;4950370;28;20308;-74
2023/01/22 03:27:05;;;;;;;9.05;2.22;;;0.20;99.90;;;-0.06;100.00;101309.44;4949202;28;20246;-72
2023/01/22 03:29:33;;;;;;;4.13;1.05;;;0.20;99.90;;;-0.04;100.00;101296.56;4948913;28;20281;-72
2023/01/22 03:32:00;;;;;;;20.33;4.20;;;0.20;99.90;;;-0.03;100.00;101304.44;4952268;28;20242;-72
2023/01/22 03:34:27;;;;;;;16.08;3.63;;;0.20;99.90;;;-0.02;100.00;101295.84;4951681;28;20252;-72
2023/01/22 03:36:54;;;;;;;5.90;1.58;;;0.20;99.90;;;0.00;100.00;101303.78;4949605;28;20222;-73
2023/01/22 03:39:22;;;;;;;4.63;1.23;;;0.30;99.90;;;0.00;100.00;101306.38;4945303;28;20265;-72
2023/01/22 03:41:49;;;;;;;6.78;1.67;;;0.20;99.90;;;-0.01;100.00;101305.44;4946998;28;20240;-74
2023/01/22 03:44:16;;;;;;;5.80;1.52;;;0.20;99.90;;;0.01;100.00;101305.59;4944443;28;20229;-73
2023/01/22 03:46:43;;;;;;;8.07;2.17;;;0.40;99.90;;;0.01;100.00;101304.69;4947655;28;20284;-72
2023/01/22 03:49:12;;;;;;;5.28;1.40;;;1.10;99.90;;;0.01;100.00;101308.19;4948858;28;20309;-72
2023/01/22 03:51:40;;;;;;;3.42;1.00;;;1.40;99.90;;;0.01;100.00;101304.69;4948887;28;20237;-73
2023/01/22 03:54:11;;;;;;;10.73;2.83;;;0.20;99.90;;;-0.01;100.00;101309.75;4945867;28;20324;-72
2023/01/22 03:56:40;;;;;;;2.88;0.88;;;0.30;99.90;;;-0.01;100.00;101307.16;4942506;28;20320;-73
2023/01/22 03:59:09;;;;;;;3.83;1.15;;;0.20;99.90;;;-0.02;100.00;101311.44;4947601;28;20233;-72
2023/01/22 04:01:36;;;;;;;3.33;1.10;;;1.10;99.90;;;-0.03;100.00;101319.16;4946356;28;20555;-72
2023/01/22 04:04:04;;;;;;;5.30;1.60;;;0.40;99.90;;;-0.04;100.00;101315.66;4946503;28;20240;-72
2023/01/22 04:06:31;;;;;;;5.75;1.60;;;0.20;99.90;;;-0.04;100.00;101318.25;4945038;28;20288;-72
2023/01/22 04:08:58;;;;;;;7.00;1.83;;;0.90;99.90;;;-0.05;100.00;101313.84;4948851;28;20260;-74
2023/01/22 04:11:25;;;;;;;6.03;2.13;;;0.20;99.90;;;-0.05;100.00;101315.56;4949704;28;20324;-72
2023/01/22 04:13:54;;;;;;;7.93;2.08;;;0.10;99.90;;;-0.05;100.00;101328.56;4951826;28;20579;-72
2023/01/22 04:16:22;;;;;;;6.38;1.85;;;0.10;99.90;;;-0.06;100.00;101327.66;4944782;28;20265;-73
2023/01/22 04:18:49;;;;;;;4.32;1.20;;;0.20;99.90;;;-0.05;100.00;101325.94;4944291;28;20230;-72
2023/01/22 04:21:16;;;;;;;4.85;1.42;;;0.80;99.90;;;-0.05;100.00;101332.06;4956420;28;20234;-72
2023/01/22 04:23:43;;;;;;;2.15;0.75;;;0.20;99.90;;;-0.06;100.00;101332.84;4960881;28;20308;-72
2023/01/22 04:26:10;;;;;;;3.08;0.98;;;0.20;99.90;;;-0.06;100.00;101332.84;4953695;28;20317;-73
2023/01/22 04:28:37;;;;;;;8.23;2.15;;;0.50;99.90;;;-0.06;100.00;101334.56;4946269;28;20226;-72
2023/01/22 04:31:04;;;;;;;9.23;2.45;;;0.30;99.90;;;-0.06;100.00;101329.34;4947984;28;20246;-72
2023/01/22 04:33:31;;;;;;;1.17;0.52;;;0.20;99.90;;;-0.06;100.00;101337.16;4949201;28;20245;-72
2023/01/22 04:35:59;;;;;;;9.25;2.63;;;0.10;99.90;;;-0.05;100.00;101339.84;4937280;28;20257;-73
2023/01/22 04:38:26;;;;;;;6.95;2.10;;;0.20;99.90;;;-0.05;100.00;101333.75;4938585;28;20337;-73
2023/01/22 04:40:53;;;;;;;6.70;2.08;;;0.80;99.90;;;-0.04;100.00;101338.16;4938257;28;20328;-73
2023/01/22 04:43:20;;;;;;;6.50;2.38;;;0.20;99.90;;;-0.06;100.00;101327.66;4939575;28;20233;-73
2023/01/22 04:45:50;;;;;;;5.43;1.73;;;0.20;99.90;;;-0.05;100.00;101331.16;4940613;28;20272;-72
2023/01/22 04:48:17;;;;;;;2.70;0.90;;;0.40;99.90;;;-0.06;100.00;101326.75;4949238;28;20224;-72
2023/01/22 04:50:44;;;;;;;3.10;1.08;;;0.20;99.90;;;-0.06;100.00;101332.84;4950296;28;20233;-73
2023/01/22 04:53:12;;;;;;;6.43;1.90;;;0.20;99.90;;;-0.04;100.00;101330.34;4947608;28;20229;-72
2023/01/22 04:55:40;;;;;;;6.07;1.75;;;0.20;99.90;;;-0.06;100.00;101329.34;4952041;28;20229;-73
2023/01/22 04:58:08;;;;;;;3.28;1.02;;;0.90;99.90;;;-0.05;100.00;101325.94;4943834;28;20234;-72
2023/01/22 05:00:35;;;;;;;4.75;1.40;;;0.20;99.90;;;-0.07;100.00;101328.44;4943356;28;20222;-72
2023/01/22 05:03:03;;;;;;;13.40;3.55;;;0.20;99.90;;;-0.05;100.00;101323.34;4945473;28;20293;-72
2023/01/22 05:05:32;;;;;;;3.20;1.08;;;0.20;99.90;;;-0.06;100.00;101324.16;4945390;28;20256;-72
2023/01/22 05:07:59;;;;;;;8.82;2.10;;;0.10;99.90;;;-0.05;100.00;101323.34;4947516;28;20702;-73
2023/01/22 05:10:27;;;;;;;4.38;1.23;;;0.20;99.90;;;-0.05;100.00;101324.25;4945888;28;20292;-72
2023/01/22 05:12:54;;;;;;;4.43;1.27;;;0.20;99.90;;;-0.05;100.00;101326.84;4949144;28;20772;-73
2023/01/22 05:15:21;;;;;;;6.05;1.63;;;0.30;99.90;;;-0.04;100.00;101332.97;4949015;28;20422;-72
2023/01/22 05:17:52;;;;;;;2.28;0.77;;;0.70;99.90;;;-0.03;100.00;101332.16;4949111;28;20222;-72
2023/01/22 05:20:19;;;;;;;4.93;1.45;;;0.20;99.90;;;-0.04;100.00;101328.66;4929394;28;20303;-72
2023/01/22 05:22:47;;;;;;;2.92;0.93;;;0.40;99.90;;;-0.03;100.00;101330.47;4948714;28;20225;-72
2023/01/22 05:25:14;;;;;;;5.05;1.38;;;0.20;99.90;;;-0.05;100.00;101333.75;4947073;28;20315;-73
2023/01/22 05:27:42;;;;;;;8.00;2.20;;;0.20;99.90;;;-0.06;100.00;101332.84;4940838;28;20238;-73
2023/01/22 05:30:11;;;;;;;5.60;1.63;;;0.20;99.90;;;-0.04;100.00;101332.97;4946343;28;20237;-72
2023/01/22 05:32:38;;;;;;;7.80;2.22;;;0.20;99.90;;;-0.06;100.00;101335.47;4939610;28;20226;-72
2023/01/22 05:35:06;;;;;;;7.63;2.10;;;0.20;99.90;;;-0.03;100.00;101337.34;4945866;28;20263;-73
2023/01/22 05:37:33;;;;;;;5.72;1.65;;;0.20;99.90;;;-0.02;100.00;101341.75;4948325;28;20308;-73
2023/01/22 05:40:00;;;;;;;8.07;2.22;;;0.20;99.90;;;-0.02;100.00;101347.84;4949761;28;20249;-74
2023/01/22 05:42:27;;;;;;;3.03;1.00;;;0.20;99.90;;;-0.03;100.00;101340.84;4954086;28;20261;-73
2023/01/22 05:44:54;;;;;;;3.83;1.23;;;0.20;99.90;;;-0.01;100.00;101343.56;4949265;28;20321;-72
2023/01/22 05:47:21;;;;;;;4.47;1.30;;;0.20;99.90;;;-0.02;100.00;101347.84;4951301;28;20259;-72
2023/01/22 05:49:48;;;;;;;3.33;1.02;;;0.30;99.90;;;-0.02;100.00;101344.34;4943700;28;20297;-72
2023/01/22 05:52:16;;;;;;;1.90;0.70;;;1.20;99.90;;;-0.02;100.00;101342.66;4953391;28;20313;-72
2023/01/22 05:54:42;;;;;;;8.52;2.42;;;0.20;99.90;;;-0.03;100.00;101350.34;4946944;28;20285;-73
2023/01/22 05:57:09;;;;;;;3.53;1.10;;;0.20;99.90;;;-0.05;100.00;101357.16;4948694;28;20284;-73
2023/01/22 05:59:37;;;;;;;8.07;2.13;;;0.20;99.90;;;-0.06;100.00;101351.06;4946410;28;20245;-72
2023/01/22 06:02:04;;;;;;;6.05;1.48;;;0.40;99.90;;;-0.05;100.00;101354.56;4946940;28;20230;-73
2023/01/22 06:04:31;;;;;;;13.57;2.80;;;0.20;99.90;;;-0.05;100.00;101358.06;4950498;28;20237;-72
2023/01/22 06:06:58;;;;;;;4.80;1.35;;;0.40;99.90;;;-0.05;100.00;101350.25;4946673;28;20300;-72
2023/01/22 06:09:25;;;;;;;3.25;0.93;;;0.20;99.90;;;-0.04;100.00;101358.97;4945190;28;20230;-72
2023/01/22 06:11:52;;;;;;;3.58;1.05;;;0.20;99.90;;;-0.04;100.00;101352.06;4948279;28;20320;-72
2023/01/22 06:14:19;;;;;;;7.03;1.83;;;0.90;99.90;;;-0.03;100.00;101361.66;4950244;28;20235;-72
2023/01/22 06:16:46;;;;;;;4.60;1.25;;;0.20;99.90;;;-0.03;100.00;101356.47;4949062;28;20301;-72
2023/01/22 06:19:13;;;;;;;2.00;0.73;;;0.20;99.90;;;-0.03;100.00;101350.34;4948232;28;20285;-72
2023/01/22 06:21:42;;;;;;;1.67;0.63;;;0.60;99.90;;;-0.04;100.00;101348.56;4944237;28;20627;-72
2023/01/22 06:24:10;;;;;;;4.72;1.33;;;0.60;99.90;;;-0.04;100.00;101354.66;4947403;28;20234;-73
2023/01/22 06:26:37;;;;;;;3.72;1.13;;;1.10;99.90;;;-0.03;100.00;101350.34;4946300;28;20246;-74
2023/01/22 06:29:05;;;;;;;6.78;1.90;;;1.20;99.90;;;-0.04;100.00;101345.97;4950668;28;20265;-72
2023/01/22 06:31:32;;;;;;;3.55;1.13;;;0.20;99.90;;;-0.04;100.00;101349.47;4951502;28;20622;-72
2023/01/22 06:33:59;;;;;;;8.05;2.25;;;0.40;99.90;;;-0.04;100.00;101344.25;4946333;28;20236;-72
2023/01/22 06:36:26;;;;;;;4.60;1.38;;;0.20;99.90;;;-0.05;100.00;101342.44;4949505;28;20322;-73
2023/01/22 06:38:54;;;;;;;4.95;1.38;;;0.20;99.90;;;-0.06;100.00;101338.06;4948047;28;20241;-72
2023/01/22 06:41:21;;;;;;;4.88;1.40;;;1.10;99.90;;;-0.06;100.00;101339.75;4946082;28;20256;-74
2023/01/22 06:43:48;;;;;;;4.72;1.42;;;0.90;99.90;;;-0.09;100.00;101343.06;4944389;28;20421;-73
2023/01/22 06:46:15;;;;;;;7.78;1.83;;;0.20;99.90;;;-0.07;100.00;101343.16;4944815;28;20253;-72
2023/01/22 06:48:43;;;;;;;8.75;2.15;;;0.10;99.90;;;-0.09;100.00;101348.25;4948818;28;20234;-72
2023/01/22 06:51:10;;;;;;;9.30;2.30;;;0.30;99.90;;;-0.08;100.00;101343.94;4944463;28;20238;-72
2023/01/22 06:53:38;;;;;;;2.47;0.82;;;0.20;99.90;;;-0.11;100.00;101342.06;4962881;28;20230;-73
2023/01/22 06:56:06;;;;;;;8.20;2.30;;;0.10;99.90;;;-0.06;100.00;101347.56;4943277;28;20237;-73
2023/01/22 06:58:33;;;;;;;4.03;1.17;;;0.20;99.90;;;-0.08;100.00;101339.66;4942738;28;20237;-72
2023/01/22 07:01:02;;;;;;;7.88;2.10;;;1.00;99.90;;;-0.01;100.00;101348.75;4948136;28;20234;-74
2023/01/22 07:03:29;;;;;;;2.90;0.95;;;0.20;99.90;;;-0.05;100.00;101346.75;4951707;28;20309;-72
2023/01/22 07:05:58;;;;;;;7.38;1.95;;;0.40;99.90;;;-0.07;100.00;101351.84;4946063;28;20245;-72
2023/01/22 07:08:27;;;;;;;3.22;1.05;;;0.30;99.90;;;-0.06;100.00;101356.25;4947450;28;20234;-73
2023/01/22 07:10:54;;;;;;;34.05;9.35;;;0.70;99.90;;;-0.06;100.00;101356.25;4955977;23;20392;-75
2023/01/22 07:13:21;;;;;;;6.75;2.17;;;0.80;99.90;;;-0.05;100.00;101359.75;4923784;28;20309;-75
2023/01/22 07:15:48;;;;;;;10.65;3.47;;;1.10;99.90;;;-0.03;100.00;101359.06;4926357;28;20242;-75
2023/01/22 07:18:18;;;;;;;5.63;1.90;;;0.20;99.90;;;-0.03;100.00;101365.97;4931985;29;20239;-75
2023/01/22 07:20:46;;;;;;;5.88;1.95;;;0.20;99.90;;;-0.02;100.00;101380.75;4934221;28;20269;-75
2023/01/22 07:23:13;;;;;;;7.05;2.03;;;0.40;99.90;;;-0.01;100.00;101375.66;4928452;28;20249;-74
2023/01/22 07:25:40;;;;;;;10.30;3.10;;;0.20;99.90;;;0.01;100.00;101382.69;4926148;29;20695;-74
2023/01/22 07:28:07;;;;;;;7.28;2.17;;;0.80;99.90;;;-0.02;100.00;101384.25;4927717;28;20289;-74
2023/01/22 07:30:39;;;;;;;5.68;1.80;;;0.20;99.90;;;0.01;100.00;101391.41;4929316;29;20234;-76
2023/01/22 07:33:06;;;;;;;12.95;3.67;;;0.30;99.90;;;0.04;100.00;101385.50;4932436;28;20741;-75
2023/01/22 07:35:33;;;;;;;6.13;1.88;;;0.30;99.90;;;0.03;100.00;101391.50;4934104;28;20321;-75
2023/01/22 07:38:00;;;;;;;5.85;1.70;;;1.00;99.90;;;0.06;100.00;101394.31;4931116;28;20329;-75
2023/01/22 07:40:28;;;;;;;6.32;1.92;;;0.50;99.90;;;0.06;100.00;101395.22;4924810;28;20735;-74
2023/01/22 07:42:55;;;;;;;6.30;1.88;;;0.30;99.90;;;0.08;100.00;101400.50;4922289;28;20314;-74
2023/01/22 07:45:23;;;;;;;6.75;1.83;;;0.30;99.90;;;0.06;100.00;101403.00;4927552;28;20775;-74
2023/01/22 07:47:56;;;;;;;8.02;1.98;;;0.30;99.90;;;0.06;100.00;101416.00;4934780;28;20229;-74
2023/01/22 07:50:27;;;;;;;7.93;1.92;;;0.30;99.90;;;0.05;100.00;101411.59;4929034;28;20250;-74
2023/01/22 07:52:55;;;;;;;8.93;2.28;;;0.30;99.90;;;0.05;100.00;101409.00;4926631;29;20262;-74
2023/01/22 07:55:22;;;;;;;11.50;2.75;;;0.40;99.90;;;0.05;100.00;101410.72;4929131;29;20663;-74
2023/01/22 07:58:02;;;;;;;8.48;2.25;;;0.30;99.90;;;0.07;100.00;101424.72;4931310;28;20289;-74
2023/01/22 08:00:30;;;;;;;8.75;2.67;;;0.30;99.90;;;0.09;100.00;101428.31;4928250;29;20233;-77
2023/01/22 08:02:57;;;;;;;8.88;2.50;;;0.30;99.90;;;0.14;100.00;101425.22;4932230;28;20317;-77
2023/01/22 08:05:24;;;;;;;14.30;3.97;;;0.30;99.90;;;0.17;100.00;101438.44;4926083;29;20235;-76
2023/01/22 08:07:52;;;;;;;15.45;3.53;;;0.50;99.90;;;0.19;100.00;101436.84;4926386;29;20226;-74
2023/01/22 08:10:19;;;;;;;12.23;3.13;;;1.20;99.90;;;0.19;100.00;101438.53;4927112;29;20244;-74
2023/01/22 08:12:46;;;;;;;8.50;2.38;;;0.40;99.90;;;0.24;100.00;101439.75;4929026;29;20313;-74
2023/01/22 08:15:14;;;;;;;10.90;3.13;;;0.70;99.90;;;0.22;100.00;101449.13;4924037;29;20245;-75
2023/01/22 08:17:41;;;;;;;10.98;3.25;;;0.60;99.90;;;0.24;100.00;101452.75;4917074;29;20256;-75
2023/01/22 08:20:09;;;;;;;10.70;3.22;;;0.50;99.90;;;0.28;100.00;101452.16;4924476;28;20298;-74
2023/01/22 08:22:39;;;;;;;10.35;3.15;;;0.50;99.90;;;0.36;100.00;101463.06;4919517;28;20321;-74
2023/01/22 08:25:10;;;;;;;12.98;3.88;;;0.50;99.90;;;0.37;100.00;101465.75;4915817;29;20238;-75
2023/01/22 08:27:46;;;;;;;6.82;2.17;;;1.70;99.90;;;0.39;100.00;101465.88;4909723;28;20325;-76
2023/01/22 08:30:16;;;;;;;6.90;2.40;;;0.00;99.90;;;0.45;100.00;101474.97;4929877;28;20273;-76
2023/01/22 08:32:50;;;;;;;9.57;3.40;;;0.60;99.90;;;0.50;100.00;101483.09;4928691;28;20237;-75
2023/01/22 08:35:17;;;;;;;11.15;3.70;;;1.20;99.90;;;0.54;100.00;101480.78;4919859;29;20234;-75
2023/01/22 08:37:46;;;;;;;8.88;3.08;;;0.60;99.90;;;0.58;100.00;101487.09;4920003;29;20265;-75
2023/01/22 08:40:13;;;;;;;11.85;4.57;;;1.30;99.90;;;0.59;100.00;101483.69;4913450;28;20333;-76
2023/01/22 08:42:41;;;;;;;7.45;2.60;;;0.70;99.90;;;0.61;100.00;101492.50;4922486;29;20250;-76
2023/01/22 08:45:08;;;;;;;8.82;3.30;;;1.40;99.90;;;0.64;100.00;101501.41;4918677;29;20318;-75
2023/01/22 08:47:36;;;;;;;6.32;2.13;;;0.70;99.90;;;0.62;100.00;101503.00;4927313;29;20257;-75
2023/01/22 08:50:05;;;;;;;9.73;3.38;;;0.70;99.90;;;0.65;100.00;101504.91;4928483;28;20241;-75
2023/01/22 08:52:32;;;;;;;5.82;2.22;;;0.80;99.90;;;0.62;100.00;101502.09;4919345;28;20226;-76
2023/01/22 08:55:05;;;;;;;8.73;2.97;;;0.80;99.90;;;0.72;100.00;101508.81;4929905;28;20249;-76
2023/01/22 08:57:32;;;;;;;20.80;7.00;;;0.70;99.90;;;0.66;100.00;101503.22;4926182;29;20238;-76
2023/01/22 08:59:59;;;;;;;14.88;5.15;;;0.70;99.90;;;0.66;100.00;101503.22;4923132;29;20234;-76
2023/01/22 09:02:28;;;;;;;6.97;2.65;;;1.10;99.90;;;0.77;100.00;101510.91;4926641;28;20226;-76
2023/01/22 09:04:55;;;;;;;5.00;1.92;;;0.80;99.90;;;0.78;100.00;101511.81;4909495;29;20273;-76
2023/01/22 09:07:22;;;;;;;6.72;2.58;;;1.00;99.90;;;0.84;100.00;101514.81;4925674;29;20265;-77
2023/01/22 09:09:49;;;;;;;7.15;2.80;;;1.10;99.90;;;0.75;100.00;101509.91;4928432;29;20244;-76
2023/01/22 09:12:17;;;;;;;24.67;8.77;;;0.90;99.90;;;0.85;100.00;101522.75;4922949;29;20307;-76
2023/01/22 09:14:45;;;;;;;6.97;2.65;;;0.90;99.90;;;0.84;100.00;101522.63;4924232;29;20321;-76
2023/01/22 09:17:13;;;;;;;7.35;2.88;;;0.90;99.90;;;0.86;100.00;101524.53;4926206;29;20223;-77
2023/01/22 09:19:40;;;;;;;4.95;1.90;;;1.00;99.90;;;0.90;100.00;101530.84;4931206;29;20234;-76
2023/01/22 09:22:07;;;;;;;12.88;3.17;;;1.00;99.90;;;0.92;100.00;101530.16;4932273;29;20241;-77
2023/01/22 09:24:34;;;;;;;7.60;2.25;;;1.00;99.90;;;1.00;100.00;101535.84;4924237;28;20291;-77
2023/01/22 09:27:01;;;;;;;10.88;3.15;;;1.00;99.90;;;0.96;100.00;101536.44;4936396;29;20239;-78
2023/01/22 09:29:31;;;;;;;10.60;3.08;;;1.10;99.90;;;1.01;100.00;101544.56;4929069;28;20246;-78
2023/01/22 09:31:58;;;;;;;13.88;3.75;;;1.30;99.90;;;1.06;100.00;101545.75;4937081;29;20235;-78
2023/01/22 09:34:25;;;;;;;12.52;3.33;;;1.20;99.90;;;1.15;100.00;101544.66;4946705;28;20297;-78
2023/01/22 09:36:52;;;;;;;8.43;2.42;;;1.20;99.90;;;1.23;100.00;101558.16;4934345;29;20262;-78
2023/01/22 09:39:25;;;;;;;8.45;2.80;;;1.20;99.90;;;1.33;100.00;101565.81;4934823;28;20238;-77
2023/01/22 09:41:57;;;;;;;10.00;2.88;;;0.60;99.90;;;1.43;100.00;101572.50;4943806;29;20218;-79
2023/01/22 09:44:38;;;;;;;21.20;5.20;;;2.60;99.90;;;1.41;100.00;101569.81;4940665;28;20334;-79
2023/01/22 09:47:15;;;;;;;9.30;2.65;;;2.00;99.90;;;1.35;100.00;101577.22;4946299;28;20241;-77
2023/01/22 09:50:23;;;;;;;3.65;1.60;;;2.60;99.90;;;1.38;100.00;101571.31;4945178;29;20278;-79
2023/01/22 09:52:53;;;;;;;4.93;2.03;;;1.40;99.90;;;1.28;100.00;101575.00;4907171;29;20234;-79
2023/01/22 09:55:25;;;;;;;3.65;1.80;;;2.10;99.90;;;1.44;100.00;101580.44;4941136;29;20313;-80
2023/01/22 09:57:56;;;;;;;10.68;4.00;;;2.10;99.90;;;1.40;100.00;101587.94;4938577;28;20333;-79
2023/01/22 10:00:38;;;;;;;4.90;2.28;;;0.80;99.90;;;1.40;100.00;101581.03;4954507;28;20294;-79
2023/01/22 10:03:22;;;;;;;6.95;2.35;;;1.50;99.90;;;1.35;100.00;101584.16;4956118;28;20246;-78
2023/01/22 10:05:58;;;;;;;6.00;2.33;;;1.50;99.90;;;1.35;100.00;101590.25;4954020;28;20261;-78
2023/01/22 10:08:59;;;;;;;5.55;2.38;;;2.40;99.90;;;1.46;100.00;101599.66;4939582;29;20274;-78
2023/01/22 10:11:28;;;;;;;4.43;2.00;;;1.50;99.90;;;1.33;100.00;101585.75;4942686;28;20340;-78
2023/01/22 10:13:59;;;;;;;7.68;2.63;;;2.40;99.90;;;1.44;100.00;101598.66;4939597;28;20323;-78
2023/01/22 10:16:30;;;;;;;5.40;2.42;;;1.50;99.90;;;1.42;100.00;101596.78;4935375;28;20226;-79
2023/01/22 10:19:34;;;;;;;7.53;2.72;;;1.40;99.90;;;1.57;100.00;101603.88;4929642;29;20238;-79
2023/01/22 10:22:15;;;;;;;14.15;4.03;;;1.60;99.90;;;1.49;100.00;101602.47;4931184;29;20758;-79
2023/01/22 10:24:42;;;;;;;3.78;1.77;;;1.60;99.90;;;1.53;100.00;101606.19;4922151;29;20226;-79
2023/01/22 10:27:17;;;;;;;6.13;2.58;;;2.00;99.90;;;1.42;100.00;101600.28;4940955;28;20230;-79
2023/01/22 10:30:14;;;;;;;4.43;1.92;;;2.30;99.90;;;1.57;100.00;101616.91;4942173;29;20248;-79